Portada
METAR-TAF:

METAR-TAF

Aeroports :

Aeroport Internacional Diori Hamani

Niamey, Níger

latitud: 13-29N, longitud: 002-10E, altitud: 223 m

Observació

L'informe es va fer fa 42 minuts, a les 14:00 UTC
Vent 5 kt amb direcció variable
Temperatura 33°C
Humitat 7%
Pressió 1010 hPa
Visibilitat: 1800 m
Pols estès

METAR: DRRN 261400Z VRB05KT 1800 R09/0900D DU NSC 33/M08 Q1010 NOSIG

Hora: 15:42 (14:42 UTC)

Pronòstic

L'informe es va fer fa 3 hores i 42 minuts, a les 11:00 UTC
Pronòstic vàlid del 26 a les 12 UTC al 27 a les 18 UTC
Vent 10 kt del Est
Visibilitat: 1400 m
Pols estès
Evolucionant progressivament
l' 26 a les 13 UTC al 16 a les 15 UTC
Visibilitat: 2500 m
Temporalment
l' 27 a les 06 UTC al 27 a les 10 UTC
Visibilitat: 1000 m

TAF: DRRN 261100Z 2612/2718 08010KT 1400 DU NSC BECMG 2613/1615 2500 TEMPO 2706/2710 1000

Observacions i pronòstics meteorològics de més de 4000 aeroports (METAR i TAF).

Les estacions disponibles són els punts grocs i vermells al mapa.

Posi el ratolí al punt desitjat per veure el nom de l'estació.

Feu clic per veure les observacions i els pronòstics meteorològics.

Per canviar el mapa: feu clic els botons verds amb una creu de color negre per apropar; al botó verd amb un guió per allunyar la imatge; o en les fletxes verdes per a mapes adjacents.


METAR-TAF: